sensor_id;sensor_type;location;lat;lon;timestamp;temperature;humidity
25440;DHT22;13365;52.208;5.488;2022-12-17T00:01:14;6.70;90.50
25440;DHT22;13365;52.208;5.488;2022-12-17T00:03:58;6.70;90.60
25440;DHT22;13365;52.208;5.488;2022-12-17T00:06:42;6.70;90.70
25440;DHT22;13365;52.208;5.488;2022-12-17T00:09:26;6.80;90.60
25440;DHT22;13365;52.208;5.488;2022-12-17T00:12:10;6.90;90.50
25440;DHT22;13365;52.208;5.488;2022-12-17T00:14:53;6.90;90.50
25440;DHT22;13365;52.208;5.488;2022-12-17T00:17:37;7.00;90.40
25440;DHT22;13365;52.208;5.488;2022-12-17T00:20:21;7.00;90.30
25440;DHT22;13365;52.208;5.488;2022-12-17T00:23:05;6.90;90.20
25440;DHT22;13365;52.208;5.488;2022-12-17T00:25:51;7.00;90.30
25440;DHT22;13365;52.208;5.488;2022-12-17T00:28:35;7.10;90.30
25440;DHT22;13365;52.208;5.488;2022-12-17T00:31:19;7.10;90.00
25440;DHT22;13365;52.208;5.488;2022-12-17T00:34:03;7.10;90.00
25440;DHT22;13365;52.208;5.488;2022-12-17T00:36:47;7.10;90.30
25440;DHT22;13365;52.208;5.488;2022-12-17T00:39:31;7.20;90.20
25440;DHT22;13365;52.208;5.488;2022-12-17T00:42:15;7.30;90.10
25440;DHT22;13365;52.208;5.488;2022-12-17T00:44:59;7.20;90.00
25440;DHT22;13365;52.208;5.488;2022-12-17T00:47:43;7.30;90.00
25440;DHT22;13365;52.208;5.488;2022-12-17T00:50:27;7.20;90.10
25440;DHT22;13365;52.208;5.488;2022-12-17T00:53:11;7.30;90.00
25440;DHT22;13365;52.208;5.488;2022-12-17T00:55:55;7.30;89.60
25440;DHT22;13365;52.208;5.488;2022-12-17T00:58:39;7.00;89.90
25440;DHT22;13365;52.208;5.488;2022-12-17T01:01:23;7.00;90.10
25440;DHT22;13365;52.208;5.488;2022-12-17T01:04:07;6.80;90.20
25440;DHT22;13365;52.208;5.488;2022-12-17T01:06:51;6.80;90.40
25440;DHT22;13365;52.208;5.488;2022-12-17T01:09:35;6.80;90.40
25440;DHT22;13365;52.208;5.488;2022-12-17T01:12:19;6.80;90.40
25440;DHT22;13365;52.208;5.488;2022-12-17T01:15:03;6.90;90.40
25440;DHT22;13365;52.208;5.488;2022-12-17T01:17:47;6.80;90.40
25440;DHT22;13365;52.208;5.488;2022-12-17T01:20:31;6.80;90.30
25440;DHT22;13365;52.208;5.488;2022-12-17T01:23:15;6.70;90.30
25440;DHT22;13365;52.208;5.488;2022-12-17T01:25:59;6.50;90.40
25440;DHT22;13365;52.208;5.488;2022-12-17T01:28:43;6.40;90.80
25440;DHT22;13365;52.208;5.488;2022-12-17T01:31:27;6.30;91.00
25440;DHT22;13365;52.208;5.488;2022-12-17T01:34:11;6.30;91.00
25440;DHT22;13365;52.208;5.488;2022-12-17T01:36:55;6.30;91.00
25440;DHT22;13365;52.208;5.488;2022-12-17T01:39:39;6.30;91.20
25440;DHT22;13365;52.208;5.488;2022-12-17T01:42:23;6.50;91.20
25440;DHT22;13365;52.208;5.488;2022-12-17T01:45:12;6.60;91.00
25440;DHT22;13365;52.208;5.488;2022-12-17T01:48:00;6.60;90.50
25440;DHT22;13365;52.208;5.488;2022-12-17T01:50:49;6.70;90.60
25440;DHT22;13365;52.208;5.488;2022-12-17T01:53:37;6.70;90.60
25440;DHT22;13365;52.208;5.488;2022-12-17T01:56:22;6.80;90.50
25440;DHT22;13365;52.208;5.488;2022-12-17T01:59:07;6.80;90.40
25440;DHT22;13365;52.208;5.488;2022-12-17T02:01:51;6.70;90.30
25440;DHT22;13365;52.208;5.488;2022-12-17T02:04:35;6.70;90.50
25440;DHT22;13365;52.208;5.488;2022-12-17T02:07:44;6.80;90.40
25440;DHT22;13365;52.208;5.488;2022-12-17T02:10:45;6.70;90.40
25440;DHT22;13365;52.208;5.488;2022-12-17T02:13:41;6.60;90.40
25440;DHT22;13365;52.208;5.488;2022-12-17T02:16:34;6.50;90.50
25440;DHT22;13365;52.208;5.488;2022-12-17T02:25:39;6.40;90.70
25440;DHT22;13365;52.208;5.488;2022-12-17T02:28:25;6.30;90.70
25440;DHT22;13365;52.208;5.488;2022-12-17T02:31:10;6.10;91.00
25440;DHT22;13365;52.208;5.488;2022-12-17T02:33:55;6.10;91.20
25440;DHT22;13365;52.208;5.488;2022-12-17T02:36:40;6.20;91.30
25440;DHT22;13365;52.208;5.488;2022-12-17T02:39:24;6.30;91.10
25440;DHT22;13365;52.208;5.488;2022-12-17T02:42:08;6.30;90.90
25440;DHT22;13365;52.208;5.488;2022-12-17T02:44:52;6.20;90.90
25440;DHT22;13365;52.208;5.488;2022-12-17T02:47:37;6.30;90.90
25440;DHT22;13365;52.208;5.488;2022-12-17T02:50:22;6.10;90.90
25440;DHT22;13365;52.208;5.488;2022-12-17T02:53:06;6.20;90.90
25440;DHT22;13365;52.208;5.488;2022-12-17T02:55:50;6.20;90.80
25440;DHT22;13365;52.208;5.488;2022-12-17T02:58:34;6.30;90.70
25440;DHT22;13365;52.208;5.488;2022-12-17T03:01:18;6.40;90.50
25440;DHT22;13365;52.208;5.488;2022-12-17T03:04:02;6.20;90.40
25440;DHT22;13365;52.208;5.488;2022-12-17T03:06:47;6.30;90.50
25440;DHT22;13365;52.208;5.488;2022-12-17T03:09:31;6.30;90.50
25440;DHT22;13365;52.208;5.488;2022-12-17T03:12:15;6.10;90.60
25440;DHT22;13365;52.208;5.488;2022-12-17T03:14:59;6.10;90.80
25440;DHT22;13365;52.208;5.488;2022-12-17T03:17:43;6.00;90.80
25440;DHT22;13365;52.208;5.488;2022-12-17T03:20:27;5.90;90.80
25440;DHT22;13365;52.208;5.488;2022-12-17T03:23:11;5.90;90.80
25440;DHT22;13365;52.208;5.488;2022-12-17T03:26:00;5.90;90.90
25440;DHT22;13365;52.208;5.488;2022-12-17T03:28:45;5.80;91.00
25440;DHT22;13365;52.208;5.488;2022-12-17T03:31:28;5.80;91.10
25440;DHT22;13365;52.208;5.488;2022-12-17T03:34:12;5.90;91.10
25440;DHT22;13365;52.208;5.488;2022-12-17T03:36:57;5.70;91.20
25440;DHT22;13365;52.208;5.488;2022-12-17T03:39:41;5.40;91.70
25440;DHT22;13365;52.208;5.488;2022-12-17T03:42:25;5.60;91.90
25440;DHT22;13365;52.208;5.488;2022-12-17T03:45:09;5.90;91.60
25440;DHT22;13365;52.208;5.488;2022-12-17T03:48:23;5.90;91.20
25440;DHT22;13365;52.208;5.488;2022-12-17T03:51:08;6.00;91.00
25440;DHT22;13365;52.208;5.488;2022-12-17T03:53:52;6.00;90.80
25440;DHT22;13365;52.208;5.488;2022-12-17T03:56:36;5.90;90.90
25440;DHT22;13365;52.208;5.488;2022-12-17T03:59:20;5.80;90.80
25440;DHT22;13365;52.208;5.488;2022-12-17T04:02:04;5.80;90.70
25440;DHT22;13365;52.208;5.488;2022-12-17T04:04:48;5.90;90.70
25440;DHT22;13365;52.208;5.488;2022-12-17T04:07:33;6.00;90.40
25440;DHT22;13365;52.208;5.488;2022-12-17T04:10:17;6.00;90.10
25440;DHT22;13365;52.208;5.488;2022-12-17T04:13:01;6.00;89.50
25440;DHT22;13365;52.208;5.488;2022-12-17T04:15:45;6.10;89.60
25440;DHT22;13365;52.208;5.488;2022-12-17T04:18:29;6.00;89.30
25440;DHT22;13365;52.208;5.488;2022-12-17T04:21:13;5.70;89.90
25440;DHT22;13365;52.208;5.488;2022-12-17T04:23:57;5.40;90.30
25440;DHT22;13365;52.208;5.488;2022-12-17T04:26:41;5.40;90.60
25440;DHT22;13365;52.208;5.488;2022-12-17T04:29:25;5.40;90.70
25440;DHT22;13365;52.208;5.488;2022-12-17T04:32:09;5.40;90.70
25440;DHT22;13365;52.208;5.488;2022-12-17T04:34:53;5.60;90.60
25440;DHT22;13365;52.208;5.488;2022-12-17T04:37:37;5.60;90.50
25440;DHT22;13365;52.208;5.488;2022-12-17T04:40:21;5.70;90.40
25440;DHT22;13365;52.208;5.488;2022-12-17T04:43:10;5.70;90.40
25440;DHT22;13365;52.208;5.488;2022-12-17T04:45:55;5.60;90.50
25440;DHT22;13365;52.208;5.488;2022-12-17T04:48:39;5.60;90.40
25440;DHT22;13365;52.208;5.488;2022-12-17T04:51:24;5.60;90.40
25440;DHT22;13365;52.208;5.488;2022-12-17T04:54:09;5.60;90.60
25440;DHT22;13365;52.208;5.488;2022-12-17T04:56:53;5.60;90.70
25440;DHT22;13365;52.208;5.488;2022-12-17T04:59:37;5.70;90.70
25440;DHT22;13365;52.208;5.488;2022-12-17T05:02:21;5.80;90.60
25440;DHT22;13365;52.208;5.488;2022-12-17T05:05:05;5.60;90.80
25440;DHT22;13365;52.208;5.488;2022-12-17T05:07:54;5.40;91.20
25440;DHT22;13365;52.208;5.488;2022-12-17T05:10:38;5.30;91.40
25440;DHT22;13365;52.208;5.488;2022-12-17T05:13:23;5.20;91.80
25440;DHT22;13365;52.208;5.488;2022-12-17T05:16:07;5.30;91.80
25440;DHT22;13365;52.208;5.488;2022-12-17T05:18:52;5.20;91.90
25440;DHT22;13365;52.208;5.488;2022-12-17T05:21:36;5.10;91.80
25440;DHT22;13365;52.208;5.488;2022-12-17T05:24:20;5.20;92.10
25440;DHT22;13365;52.208;5.488;2022-12-17T05:27:04;5.30;92.10
25440;DHT22;13365;52.208;5.488;2022-12-17T05:29:48;5.10;92.10
25440;DHT22;13365;52.208;5.488;2022-12-17T05:32:32;4.90;92.50
25440;DHT22;13365;52.208;5.488;2022-12-17T05:35:16;4.60;93.10
25440;DHT22;13365;52.208;5.488;2022-12-17T05:38:04;4.70;93.30
25440;DHT22;13365;52.208;5.488;2022-12-17T05:40:49;4.80;93.40
25440;DHT22;13365;52.208;5.488;2022-12-17T05:43:34;4.90;93.10
25440;DHT22;13365;52.208;5.488;2022-12-17T05:46:17;4.90;93.00
25440;DHT22;13365;52.208;5.488;2022-12-17T05:49:01;4.90;93.10
25440;DHT22;13365;52.208;5.488;2022-12-17T05:51:45;4.80;93.00
25440;DHT22;13365;52.208;5.488;2022-12-17T05:54:29;4.60;93.20
25440;DHT22;13365;52.208;5.488;2022-12-17T05:57:13;4.80;93.50
25440;DHT22;13365;52.208;5.488;2022-12-17T05:59:57;4.70;93.20
25440;DHT22;13365;52.208;5.488;2022-12-17T06:02:41;4.90;93.10
25440;DHT22;13365;52.208;5.488;2022-12-17T06:05:25;4.90;92.90
25440;DHT22;13365;52.208;5.488;2022-12-17T06:08:09;4.90;92.80
25440;DHT22;13365;52.208;5.488;2022-12-17T06:10:56;4.70;93.00
25440;DHT22;13365;52.208;5.488;2022-12-17T06:13:40;4.70;93.10
25440;DHT22;13365;52.208;5.488;2022-12-17T06:16:24;4.70;92.90
25440;DHT22;13365;52.208;5.488;2022-12-17T06:19:08;4.80;92.90
25440;DHT22;13365;52.208;5.488;2022-12-17T06:21:52;5.00;92.70
25440;DHT22;13365;52.208;5.488;2022-12-17T06:24:36;4.90;92.60
25440;DHT22;13365;52.208;5.488;2022-12-17T06:27:19;4.60;92.70
25440;DHT22;13365;52.208;5.488;2022-12-17T06:30:08;4.80;92.80
25440;DHT22;13365;52.208;5.488;2022-12-17T06:33:02;4.70;92.60
25440;DHT22;13365;52.208;5.488;2022-12-17T06:35:47;4.60;92.70
25440;DHT22;13365;52.208;5.488;2022-12-17T06:38:31;4.30;92.80
25440;DHT22;13365;52.208;5.488;2022-12-17T06:41:15;4.60;93.10
25440;DHT22;13365;52.208;5.488;2022-12-17T06:43:59;4.50;92.90
25440;DHT22;13365;52.208;5.488;2022-12-17T06:46:43;4.70;92.80
25440;DHT22;13365;52.208;5.488;2022-12-17T06:49:26;4.70;92.60
25440;DHT22;13365;52.208;5.488;2022-12-17T06:52:11;4.70;92.40
25440;DHT22;13365;52.208;5.488;2022-12-17T06:54:54;4.80;92.30
25440;DHT22;13365;52.208;5.488;2022-12-17T06:57:39;4.90;92.20
25440;DHT22;13365;52.208;5.488;2022-12-17T07:00:22;5.00;92.30
25440;DHT22;13365;52.208;5.488;2022-12-17T07:03:09;5.10;91.90
25440;DHT22;13365;52.208;5.488;2022-12-17T07:05:54;5.00;91.70
25440;DHT22;13365;52.208;5.488;2022-12-17T07:08:38;5.10;91.80
25440;DHT22;13365;52.208;5.488;2022-12-17T07:11:22;5.20;91.80
25440;DHT22;13365;52.208;5.488;2022-12-17T07:14:06;5.00;91.90
25440;DHT22;13365;52.208;5.488;2022-12-17T07:16:50;5.10;92.00
25440;DHT22;13365;52.208;5.488;2022-12-17T07:19:34;5.20;91.90
25440;DHT22;13365;52.208;5.488;2022-12-17T07:22:18;5.10;91.90
25440;DHT22;13365;52.208;5.488;2022-12-17T07:25:02;4.80;92.00
25440;DHT22;13365;52.208;5.488;2022-12-17T07:27:54;4.80;92.30
25440;DHT22;13365;52.208;5.488;2022-12-17T07:30:38;4.80;92.60
25440;DHT22;13365;52.208;5.488;2022-12-17T07:33:22;4.80;92.70
25440;DHT22;13365;52.208;5.488;2022-12-17T07:36:06;4.60;92.90
25440;DHT22;13365;52.208;5.488;2022-12-17T07:38:51;4.70;93.00
25440;DHT22;13365;52.208;5.488;2022-12-17T07:41:35;4.90;92.70
25440;DHT22;13365;52.208;5.488;2022-12-17T07:44:19;5.10;92.50
25440;DHT22;13365;52.208;5.488;2022-12-17T07:47:03;5.20;92.30
25440;DHT22;13365;52.208;5.488;2022-12-17T07:49:47;5.10;92.40
25440;DHT22;13365;52.208;5.488;2022-12-17T07:52:31;4.90;92.40
25440;DHT22;13365;52.208;5.488;2022-12-17T07:55:15;5.10;92.90
25440;DHT22;13365;52.208;5.488;2022-12-17T07:58:08;5.30;92.30
25440;DHT22;13365;52.208;5.488;2022-12-17T08:00:53;5.30;92.00
25440;DHT22;13365;52.208;5.488;2022-12-17T08:03:37;5.40;91.90
25440;DHT22;13365;52.208;5.488;2022-12-17T08:06:21;5.50;91.90
25440;DHT22;13365;52.208;5.488;2022-12-17T08:09:05;5.40;91.80
25440;DHT22;13365;52.208;5.488;2022-12-17T08:11:49;5.40;91.80
25440;DHT22;13365;52.208;5.488;2022-12-17T08:14:33;5.50;92.00
25440;DHT22;13365;52.208;5.488;2022-12-17T08:17:17;5.40;91.70
25440;DHT22;13365;52.208;5.488;2022-12-17T08:20:01;5.30;91.90
25440;DHT22;13365;52.208;5.488;2022-12-17T08:22:45;5.50;92.00
25440;DHT22;13365;52.208;5.488;2022-12-17T08:25:29;5.60;91.80
25440;DHT22;13365;52.208;5.488;2022-12-17T08:28:14;5.60;91.70
25440;DHT22;13365;52.208;5.488;2022-12-17T08:30:58;5.50;91.80
25440;DHT22;13365;52.208;5.488;2022-12-17T08:33:42;5.40;92.00
25440;DHT22;13365;52.208;5.488;2022-12-17T08:36:25;5.40;91.90
25440;DHT22;13365;52.208;5.488;2022-12-17T08:39:09;5.10;92.10
25440;DHT22;13365;52.208;5.488;2022-12-17T08:41:55;5.20;92.40
25440;DHT22;13365;52.208;5.488;2022-12-17T08:44:39;5.10;92.60
25440;DHT22;13365;52.208;5.488;2022-12-17T08:47:23;5.20;92.40
25440;DHT22;13365;52.208;5.488;2022-12-17T08:50:07;4.90;92.70
25440;DHT22;13365;52.208;5.488;2022-12-17T08:52:58;4.80;93.00
25440;DHT22;13365;52.208;5.488;2022-12-17T08:55:42;4.70;93.20
25440;DHT22;13365;52.208;5.488;2022-12-17T08:58:26;4.60;93.60
25440;DHT22;13365;52.208;5.488;2022-12-17T09:01:10;4.70;93.80
25440;DHT22;13365;52.208;5.488;2022-12-17T09:03:54;4.80;93.70
25440;DHT22;13365;52.208;5.488;2022-12-17T09:06:38;5.20;93.40
25440;DHT22;13365;52.208;5.488;2022-12-17T09:09:22;5.30;92.60
25440;DHT22;13365;52.208;5.488;2022-12-17T09:12:06;5.30;92.50
25440;DHT22;13365;52.208;5.488;2022-12-17T09:14:50;5.30;92.40
25440;DHT22;13365;52.208;5.488;2022-12-17T09:17:34;5.50;92.40
25440;DHT22;13365;52.208;5.488;2022-12-17T09:20:18;5.40;92.00
25440;DHT22;13365;52.208;5.488;2022-12-17T09:23:02;5.00;92.30
25440;DHT22;13365;52.208;5.488;2022-12-17T09:25:56;4.90;93.00
25440;DHT22;13365;52.208;5.488;2022-12-17T09:28:40;4.90;92.80
25440;DHT22;13365;52.208;5.488;2022-12-17T09:31:24;4.70;93.00
25440;DHT22;13365;52.208;5.488;2022-12-17T09:34:08;4.80;93.30
25440;DHT22;13365;52.208;5.488;2022-12-17T09:36:52;5.00;93.30
25440;DHT22;13365;52.208;5.488;2022-12-17T09:39:36;5.00;93.30
25440;DHT22;13365;52.208;5.488;2022-12-17T09:42:44;4.90;93.40
25440;DHT22;13365;52.208;5.488;2022-12-17T09:45:56;4.80;93.50
25440;DHT22;13365;52.208;5.488;2022-12-17T09:51:39;5.00;93.50
25440;DHT22;13365;52.208;5.488;2022-12-17T09:55:02;5.00;93.40
25440;DHT22;13365;52.208;5.488;2022-12-17T09:57:39;5.00;93.50
25440;DHT22;13365;52.208;5.488;2022-12-17T10:00:26;5.10;93.20
25440;DHT22;13365;52.208;5.488;2022-12-17T10:03:14;5.00;93.30
25440;DHT22;13365;52.208;5.488;2022-12-17T10:06:03;4.80;93.60
25440;DHT22;13365;52.208;5.488;2022-12-17T10:08:54;4.70;93.90
25440;DHT22;13365;52.208;5.488;2022-12-17T10:11:39;4.60;94.10
25440;DHT22;13365;52.208;5.488;2022-12-17T10:14:24;4.80;94.00
25440;DHT22;13365;52.208;5.488;2022-12-17T10:17:21;4.70;94.00
25440;DHT22;13365;52.208;5.488;2022-12-17T10:23:09;4.70;94.30
25440;DHT22;13365;52.208;5.488;2022-12-17T10:25:54;4.80;94.30
25440;DHT22;13365;52.208;5.488;2022-12-17T10:28:39;4.90;94.00
25440;DHT22;13365;52.208;5.488;2022-12-17T10:31:28;5.10;93.90
25440;DHT22;13365;52.208;5.488;2022-12-17T10:34:18;5.10;93.70
25440;DHT22;13365;52.208;5.488;2022-12-17T10:37:03;5.30;93.60
25440;DHT22;13365;52.208;5.488;2022-12-17T10:39:59;5.50;93.20
25440;DHT22;13365;52.208;5.488;2022-12-17T10:42:45;5.60;92.80
25440;DHT22;13365;52.208;5.488;2022-12-17T10:45:31;5.50;92.80
25440;DHT22;13365;52.208;5.488;2022-12-17T10:48:22;5.50;93.00
25440;DHT22;13365;52.208;5.488;2022-12-17T10:51:30;5.70;92.90
25440;DHT22;13365;52.208;5.488;2022-12-17T10:54:30;5.60;92.70
25440;DHT22;13365;52.208;5.488;2022-12-17T10:57:32;5.50;93.00
25440;DHT22;13365;52.208;5.488;2022-12-17T11:03:01;5.60;92.90
25440;DHT22;13365;52.208;5.488;2022-12-17T11:05:49;5.70;92.80
25440;DHT22;13365;52.208;5.488;2022-12-17T11:08:34;5.70;92.70
25440;DHT22;13365;52.208;5.488;2022-12-17T11:11:19;5.70;92.50
25440;DHT22;13365;52.208;5.488;2022-12-17T11:14:05;5.50;92.60
25440;DHT22;13365;52.208;5.488;2022-12-17T11:17:02;5.40;93.20
25440;DHT22;13365;52.208;5.488;2022-12-17T11:19:54;5.50;93.00
25440;DHT22;13365;52.208;5.488;2022-12-17T11:22:51;5.50;92.90
25440;DHT22;13365;52.208;5.488;2022-12-17T11:25:55;5.40;92.90
25440;DHT22;13365;52.208;5.488;2022-12-17T11:28:40;5.50;92.80
25440;DHT22;13365;52.208;5.488;2022-12-17T11:34:51;5.50;92.90
25440;DHT22;13365;52.208;5.488;2022-12-17T11:37:43;5.40;92.80
25440;DHT22;13365;52.208;5.488;2022-12-17T11:40:40;5.30;93.10
25440;DHT22;13365;52.208;5.488;2022-12-17T11:43:49;5.30;93.40
25440;DHT22;13365;52.208;5.488;2022-12-17T11:49:50;5.60;92.80
25440;DHT22;13365;52.208;5.488;2022-12-17T11:56:05;6.10;91.60
25440;DHT22;13365;52.208;5.488;2022-12-17T11:59:26;5.60;91.60
25440;DHT22;13365;52.208;5.488;2022-12-17T12:18:26;5.30;93.10
25440;DHT22;13365;52.208;5.488;2022-12-17T12:21:36;5.60;93.10
25440;DHT22;13365;52.208;5.488;2022-12-17T12:27:27;5.70;92.30
25440;DHT22;13365;52.208;5.488;2022-12-17T12:30:20;5.60;92.50
25440;DHT22;13365;52.208;5.488;2022-12-17T12:33:20;5.50;92.80
25440;DHT22;13365;52.208;5.488;2022-12-17T12:36:09;5.50;92.60
25440;DHT22;13365;52.208;5.488;2022-12-17T12:38:55;5.50;92.40
25440;DHT22;13365;52.208;5.488;2022-12-17T12:45:00;5.50;92.50
25440;DHT22;13365;52.208;5.488;2022-12-17T12:51:35;5.50;92.60
25440;DHT22;13365;52.208;5.488;2022-12-17T12:54:23;5.70;92.30
25440;DHT22;13365;52.208;5.488;2022-12-17T12:57:31;5.70;92.00
25440;DHT22;13365;52.208;5.488;2022-12-17T13:09:19;5.30;92.40
25440;DHT22;13365;52.208;5.488;2022-12-17T13:25:36;5.80;91.70
25440;DHT22;13365;52.208;5.488;2022-12-17T13:28:02;5.70;91.70
25440;DHT22;13365;52.208;5.488;2022-12-17T13:30:36;5.80;91.60
25440;DHT22;13365;52.208;5.488;2022-12-17T13:39:15;5.40;91.70
25440;DHT22;13365;52.208;5.488;2022-12-17T13:41:44;5.20;92.10
25440;DHT22;13365;52.208;5.488;2022-12-17T13:44:25;5.10;92.40
25440;DHT22;13365;52.208;5.488;2022-12-17T13:46:54;5.20;92.50
25440;DHT22;13365;52.208;5.488;2022-12-17T13:49:21;5.30;92.20
25440;DHT22;13365;52.208;5.488;2022-12-17T13:51:47;5.30;92.00
25440;DHT22;13365;52.208;5.488;2022-12-17T13:54:23;5.30;92.10
25440;DHT22;13365;52.208;5.488;2022-12-17T13:56:49;5.20;92.00
25440;DHT22;13365;52.208;5.488;2022-12-17T13:59:22;5.20;92.20
25440;DHT22;13365;52.208;5.488;2022-12-17T14:01:52;5.30;92.30
25440;DHT22;13365;52.208;5.488;2022-12-17T14:04:20;5.60;92.10
25440;DHT22;13365;52.208;5.488;2022-12-17T14:06:45;5.60;91.80
25440;DHT22;13365;52.208;5.488;2022-12-17T14:09:15;5.60;91.50
25440;DHT22;13365;52.208;5.488;2022-12-17T14:11:41;5.60;91.40
25440;DHT22;13365;52.208;5.488;2022-12-17T14:14:32;5.50;91.30
25440;DHT22;13365;52.208;5.488;2022-12-17T14:16:58;5.30;91.40
25440;DHT22;13365;52.208;5.488;2022-12-17T14:19:24;5.30;91.80
25440;DHT22;13365;52.208;5.488;2022-12-17T14:21:51;5.20;91.90
25440;DHT22;13365;52.208;5.488;2022-12-17T14:24:19;5.20;92.00
25440;DHT22;13365;52.208;5.488;2022-12-17T14:26:55;5.30;92.10
25440;DHT22;13365;52.208;5.488;2022-12-17T14:29:22;5.50;91.60
25440;DHT22;13365;52.208;5.488;2022-12-17T14:31:57;5.40;91.40
25440;DHT22;13365;52.208;5.488;2022-12-17T14:34:24;5.20;91.50
25440;DHT22;13365;52.208;5.488;2022-12-17T14:36:55;4.90;91.90
25440;DHT22;13365;52.208;5.488;2022-12-17T14:39:29;5.00;92.10
25440;DHT22;13365;52.208;5.488;2022-12-17T14:42:05;4.80;92.10
25440;DHT22;13365;52.208;5.488;2022-12-17T14:44:52;4.70;92.30
25440;DHT22;13365;52.208;5.488;2022-12-17T14:47:22;4.60;92.70
25440;DHT22;13365;52.208;5.488;2022-12-17T14:50:24;4.50;92.80
25440;DHT22;13365;52.208;5.488;2022-12-17T14:52:52;4.70;92.90
25440;DHT22;13365;52.208;5.488;2022-12-17T14:57:48;4.60;92.50
25440;DHT22;13365;52.208;5.488;2022-12-17T15:00:14;4.70;92.80
25440;DHT22;13365;52.208;5.488;2022-12-17T15:02:41;4.70;92.40
25440;DHT22;13365;52.208;5.488;2022-12-17T15:05:12;4.50;92.70
25440;DHT22;13365;52.208;5.488;2022-12-17T15:07:38;4.70;92.70
25440;DHT22;13365;52.208;5.488;2022-12-17T15:10:10;4.60;92.50
25440;DHT22;13365;52.208;5.488;2022-12-17T15:12:36;4.80;92.50
25440;DHT22;13365;52.208;5.488;2022-12-17T15:15:02;4.70;92.10
25440;DHT22;13365;52.208;5.488;2022-12-17T15:17:28;4.50;92.20
25440;DHT22;13365;52.208;5.488;2022-12-17T15:19:53;4.70;92.40
25440;DHT22;13365;52.208;5.488;2022-12-17T15:22:19;4.80;92.00
25440;DHT22;13365;52.208;5.488;2022-12-17T15:24:45;4.70;91.90
25440;DHT22;13365;52.208;5.488;2022-12-17T15:27:12;4.80;91.90
25440;DHT22;13365;52.208;5.488;2022-12-17T15:29:37;4.60;91.90
25440;DHT22;13365;52.208;5.488;2022-12-17T15:32:03;4.60;92.00
25440;DHT22;13365;52.208;5.488;2022-12-17T15:34:29;4.70;92.20
25440;DHT22;13365;52.208;5.488;2022-12-17T15:36:54;5.00;92.20
25440;DHT22;13365;52.208;5.488;2022-12-17T15:39:20;5.00;91.70
25440;DHT22;13365;52.208;5.488;2022-12-17T15:41:45;4.80;91.70
25440;DHT22;13365;52.208;5.488;2022-12-17T15:44:40;4.60;91.80
25440;DHT22;13365;52.208;5.488;2022-12-17T15:47:05;4.50;92.10
25440;DHT22;13365;52.208;5.488;2022-12-17T15:49:31;4.30;92.40
25440;DHT22;13365;52.208;5.488;2022-12-17T15:51:56;4.20;92.50
25440;DHT22;13365;52.208;5.488;2022-12-17T15:54:22;4.20;92.80
25440;DHT22;13365;52.208;5.488;2022-12-17T15:56:52;4.40;92.70
25440;DHT22;13365;52.208;5.488;2022-12-17T15:59:18;4.40;92.50
25440;DHT22;13365;52.208;5.488;2022-12-17T16:01:44;4.50;92.50
25440;DHT22;13365;52.208;5.488;2022-12-17T16:04:09;4.60;92.10
25440;DHT22;13365;52.208;5.488;2022-12-17T16:06:35;4.50;92.10
25440;DHT22;13365;52.208;5.488;2022-12-17T16:09:00;4.50;92.40
25440;DHT22;13365;52.208;5.488;2022-12-17T16:11:26;4.40;92.30
25440;DHT22;13365;52.208;5.488;2022-12-17T16:13:55;4.20;92.40
25440;DHT22;13365;52.208;5.488;2022-12-17T16:16:21;4.10;92.50
25440;DHT22;13365;52.208;5.488;2022-12-17T16:18:47;4.00;92.60
25440;DHT22;13365;52.208;5.488;2022-12-17T16:21:14;3.90;92.90
25440;DHT22;13365;52.208;5.488;2022-12-17T16:23:40;3.80;93.10
25440;DHT22;13365;52.208;5.488;2022-12-17T16:26:07;3.80;93.00
25440;DHT22;13365;52.208;5.488;2022-12-17T16:28:33;3.70;93.00
25440;DHT22;13365;52.208;5.488;2022-12-17T16:31:05;3.90;93.00
25440;DHT22;13365;52.208;5.488;2022-12-17T16:33:31;4.10;93.10
25440;DHT22;13365;52.208;5.488;2022-12-17T16:35:57;4.20;92.30
25440;DHT22;13365;52.208;5.488;2022-12-17T16:38:22;4.00;92.20
25440;DHT22;13365;52.208;5.488;2022-12-17T16:40:48;4.00;92.60
25440;DHT22;13365;52.208;5.488;2022-12-17T16:43:14;4.00;92.60
25440;DHT22;13365;52.208;5.488;2022-12-17T16:45:47;3.80;92.70
25440;DHT22;13365;52.208;5.488;2022-12-17T16:48:13;3.50;93.30
25440;DHT22;13365;52.208;5.488;2022-12-17T16:50:39;3.50;93.60
25440;DHT22;13365;52.208;5.488;2022-12-17T16:53:04;3.60;93.60
25440;DHT22;13365;52.208;5.488;2022-12-17T16:55:30;3.60;93.60
25440;DHT22;13365;52.208;5.488;2022-12-17T16:57:55;3.50;93.70
25440;DHT22;13365;52.208;5.488;2022-12-17T17:00:21;3.70;93.70
25440;DHT22;13365;52.208;5.488;2022-12-17T17:02:46;3.70;93.70
25440;DHT22;13365;52.208;5.488;2022-12-17T17:05:12;3.80;93.70
25440;DHT22;13365;52.208;5.488;2022-12-17T17:07:37;4.00;93.40
25440;DHT22;13365;52.208;5.488;2022-12-17T17:10:03;4.30;93.20
25440;DHT22;13365;52.208;5.488;2022-12-17T17:12:29;4.40;92.70
25440;DHT22;13365;52.208;5.488;2022-12-17T17:14:54;4.40;92.50
25440;DHT22;13365;52.208;5.488;2022-12-17T17:17:20;4.50;92.20
25440;DHT22;13365;52.208;5.488;2022-12-17T17:19:45;4.40;92.10
25440;DHT22;13365;52.208;5.488;2022-12-17T17:22:11;4.30;92.10
25440;DHT22;13365;52.208;5.488;2022-12-17T17:24:37;4.40;92.30
25440;DHT22;13365;52.208;5.488;2022-12-17T17:27:02;4.40;92.20
25440;DHT22;13365;52.208;5.488;2022-12-17T17:29:28;4.40;92.20
25440;DHT22;13365;52.208;5.488;2022-12-17T17:31:53;4.60;92.10
25440;DHT22;13365;52.208;5.488;2022-12-17T17:34:19;4.40;92.00
25440;DHT22;13365;52.208;5.488;2022-12-17T17:36:44;4.50;92.20
25440;DHT22;13365;52.208;5.488;2022-12-17T17:39:10;4.60;92.00
25440;DHT22;13365;52.208;5.488;2022-12-17T17:41:38;4.50;91.80
25440;DHT22;13365;52.208;5.488;2022-12-17T17:44:14;4.50;92.00
25440;DHT22;13365;52.208;5.488;2022-12-17T17:46:40;4.50;91.90
25440;DHT22;13365;52.208;5.488;2022-12-17T17:49:07;4.50;91.90
25440;DHT22;13365;52.208;5.488;2022-12-17T17:51:35;4.50;92.00
25440;DHT22;13365;52.208;5.488;2022-12-17T17:54:02;4.50;91.70
25440;DHT22;13365;52.208;5.488;2022-12-17T17:56:32;4.50;91.70
25440;DHT22;13365;52.208;5.488;2022-12-17T17:59:03;4.30;91.70
25440;DHT22;13365;52.208;5.488;2022-12-17T18:01:31;4.00;92.00
25440;DHT22;13365;52.208;5.488;2022-12-17T18:03:59;3.90;92.40
25440;DHT22;13365;52.208;5.488;2022-12-17T18:06:25;4.00;92.50
25440;DHT22;13365;52.208;5.488;2022-12-17T18:08:52;4.00;92.50
25440;DHT22;13365;52.208;5.488;2022-12-17T18:11:20;3.90;92.60
25440;DHT22;13365;52.208;5.488;2022-12-17T18:13:45;4.10;92.70
25440;DHT22;13365;52.208;5.488;2022-12-17T18:18:52;4.10;92.00
25440;DHT22;13365;52.208;5.488;2022-12-17T18:21:18;4.20;92.20
25440;DHT22;13365;52.208;5.488;2022-12-17T18:23:45;4.10;92.00
25440;DHT22;13365;52.208;5.488;2022-12-17T18:26:14;4.20;92.10
25440;DHT22;13365;52.208;5.488;2022-12-17T18:28:41;4.00;92.10
25440;DHT22;13365;52.208;5.488;2022-12-17T18:31:15;4.10;92.10
25440;DHT22;13365;52.208;5.488;2022-12-17T18:33:43;4.10;92.20
25440;DHT22;13365;52.208;5.488;2022-12-17T18:36:11;4.10;92.00